Time;durP1;ratioP1;P1;durP2;ratioP2;P2;SDS_P1;SDS_P2;PMS_P1;PMS_P2;Temp;Humidity;BMP_temperature;BMP_pressure;BME280_temperature;BME280_humidity;BME280_pressure;Samples;Min_cycle;Max_cycle;Signal;HPM_P1;HPM_P2
2022/01/22 00:01:46;;;;;;;52.25;46.95;;;16.40;55.60;;;;;;5007427;27;96450;-74
2022/01/22 00:04:12;;;;;;;52.28;46.97;;;16.40;55.50;;;;;;5013722;27;95470;-73
2022/01/22 00:06:38;;;;;;;52.60;47.10;;;16.40;55.60;;;;;;5012026;27;97501;-74
2022/01/22 00:09:04;;;;;;;51.97;46.67;;;16.40;55.80;;;;;;5008896;27;95432;-73
2022/01/22 00:11:35;;;;;;;52.33;46.95;;;16.30;55.90;;;;;;5008793;27;96035;-73
2022/01/22 00:16:45;;;;;;;52.90;47.42;;;16.30;55.70;;;;;;5005970;27;94680;-74
2022/01/22 00:19:11;;;;;;;51.90;46.67;;;16.30;55.80;;;;;;5004598;27;94513;-73
2022/01/22 00:21:37;;;;;;;53.03;47.33;;;16.30;55.90;;;;;;5014106;27;95101;-73
2022/01/22 00:24:21;;;;;;;47.77;42.80;;;16.30;56.60;;;;;;855377;27;10098851;-73
2022/01/22 00:26:47;;;;;;;52.60;47.20;;;16.20;55.80;;;;;;5006306;27;97580;-73
2022/01/22 00:29:14;;;;;;;52.13;46.72;;;16.20;56.00;;;;;;5011710;27;95684;-73
2022/01/22 00:31:41;;;;;;;52.35;46.97;;;16.20;56.10;;;;;;5013265;27;94869;-73
2022/01/22 00:34:07;;;;;;;52.03;46.75;;;16.20;56.00;;;;;;5013562;27;95257;-73
2022/01/22 00:36:33;;;;;;;52.72;47.22;;;16.10;56.10;;;;;;5012941;27;96159;-73
2022/01/22 00:38:59;;;;;;;52.40;46.90;;;16.10;56.20;;;;;;5014311;27;95747;-73
2022/01/22 00:41:25;;;;;;;52.78;47.28;;;16.10;56.10;;;;;;5016791;27;94807;-73
2022/01/22 00:43:51;;;;;;;52.35;46.95;;;16.10;56.10;;;;;;4999511;27;95978;-73
2022/01/22 00:46:17;;;;;;;52.10;46.70;;;16.10;56.30;;;;;;5012417;27;95600;-73
2022/01/22 00:48:42;;;;;;;52.67;47.17;;;16.10;56.30;;;;;;5019523;27;94689;-73
2022/01/22 00:51:08;;;;;;;52.05;46.83;;;16.00;56.30;;;;;;5013244;27;96341;-73
2022/01/22 00:53:34;;;;;;;52.53;47.05;;;16.00;56.30;;;;;;5008197;27;94840;-73
2022/01/22 00:55:59;;;;;;;52.33;46.92;;;16.00;56.30;;;;;;5006050;27;95124;-73
2022/01/22 00:58:25;;;;;;;52.58;47.25;;;16.00;56.40;;;;;;5008873;27;95398;-74
2022/01/22 01:00:51;;;;;;;52.00;46.60;;;15.90;56.40;;;;;;5007021;27;95821;-73
2022/01/22 01:03:17;;;;;;;52.38;47.05;;;16.00;56.40;;;;;;5009367;27;95645;-73
2022/01/22 01:05:43;;;;;;;52.10;46.75;;;16.00;56.40;;;;;;5013634;27;96022;-73
2022/01/22 01:08:08;;;;;;;52.17;46.78;;;15.90;56.40;;;;;;5013727;27;94441;-73
2022/01/22 01:10:34;;;;;;;52.20;46.80;;;15.90;56.60;;;;;;4996259;27;96412;-73
2022/01/22 01:13:00;;;;;;;51.97;46.67;;;15.90;56.50;;;;;;5013219;27;96144;-73
2022/01/22 01:34:21;;;;;;;52.35;47.05;;;16.40;55.40;;;;;;5011844;27;94977;-73
2022/01/22 01:36:48;;;;;;;52.65;47.33;;;16.60;55.20;;;;;;5015527;27;95790;-73
2022/01/22 01:39:19;;;;;;;52.50;47.10;;;16.70;55.00;;;;;;5014759;27;95098;-73
2022/01/22 01:41:53;;;;;;;52.30;46.97;;;16.80;54.60;;;;;;5013457;27;97669;-73
2022/01/22 01:44:19;;;;;;;52.33;47.00;;;16.90;54.30;;;;;;5009971;27;95110;-74
2022/01/22 01:46:51;;;;;;;52.15;46.85;;;17.00;54.20;;;;;;5002318;27;96506;-73
2022/01/22 01:49:17;;;;;;;52.58;47.13;;;17.00;54.00;;;;;;4997061;27;101956;-73
2022/01/22 01:51:44;;;;;;;52.67;47.28;;;17.10;53.90;;;;;;4999099;27;95224;-73
2022/01/22 01:59:20;;;;;;;52.42;47.05;;;17.10;53.70;;;;;;4992020;27;95843;-73
2022/01/22 02:01:46;;;;;;;52.20;46.85;;;17.10;53.70;;;;;;4999533;27;96057;-73
2022/01/22 02:04:13;;;;;;;52.90;47.53;;;17.20;53.50;;;;;;4995766;27;96053;-73
2022/01/22 02:06:39;;;;;;;52.45;47.15;;;17.20;53.40;;;;;;4975687;27;101039;-73
2022/01/22 02:09:08;;;;;;;53.15;47.60;;;17.10;53.50;;;;;;5003451;27;99493;-74
2022/01/22 02:11:39;;;;;;;52.92;47.45;;;17.10;53.40;;;;;;5007005;27;95636;-73
2022/01/22 02:23:30;;;;;;;52.67;47.30;;;17.20;53.50;;;;;;4998978;27;95880;-73
2022/01/22 02:25:08;;;;;;;52.45;47.15;;;17.10;53.60;;;;;;4997499;27;99616;-73
2022/01/22 02:27:33;;;;;;;52.65;47.25;;;17.00;53.60;;;;;;5000813;27;95179;-74
2022/01/22 02:29:59;;;;;;;52.42;47.13;;;17.00;53.80;;;;;;5005967;27;95843;-73
2022/01/22 02:35:14;;;;;;;52.53;47.08;;;17.00;53.80;;;;;;5007518;27;96115;-73
2022/01/22 02:37:47;;;;;;;52.50;47.10;;;16.90;53.80;;;;;;4997966;27;96950;-73
2022/01/22 02:40:24;;;;;;;52.67;47.28;;;16.80;53.90;;;;;;4996402;27;95439;-73
2022/01/22 02:42:49;;;;;;;52.40;47.10;;;16.80;53.80;;;;;;4998592;27;96421;-73
2022/01/22 02:45:19;;;;;;;53.03;47.53;;;16.80;54.00;;;;;;4999151;27;96250;-74
2022/01/22 02:47:45;;;;;;;52.50;47.15;;;16.80;54.00;;;;;;5001164;27;95886;-73
2022/01/22 02:50:11;;;;;;;52.85;47.45;;;16.80;54.10;;;;;;5000167;27;94333;-73
2022/01/22 02:52:37;;;;;;;52.75;47.33;;;16.70;54.10;;;;;;4998728;27;96207;-73
2022/01/22 02:55:05;;;;;;;52.67;47.38;;;16.70;54.20;;;;;;5001640;27;96502;-73
2022/01/22 02:57:32;;;;;;;52.50;47.20;;;16.70;54.30;;;;;;4995438;27;96452;-74
2022/01/22 02:59:59;;;;;;;52.83;47.35;;;16.70;54.40;;;;;;4994699;27;95531;-73
2022/01/22 03:02:25;;;;;;;52.72;47.33;;;16.60;54.50;;;;;;4996345;27;95832;-73
2022/01/22 03:04:51;;;;;;;52.42;47.03;;;16.60;54.50;;;;;;4999966;27;96250;-73
2022/01/22 03:07:17;;;;;;;52.67;47.28;;;16.50;54.50;;;;;;4994047;27;96629;-73
2022/01/22 03:09:45;;;;;;;52.70;47.25;;;16.50;54.70;;;;;;4989417;27;96179;-73
2022/01/22 03:27:26;;;;;;;52.30;47.00;;;16.30;55.00;;;;;;5002719;27;95338;-73
2022/01/22 03:29:52;;;;;;;52.47;47.08;;;16.30;55.00;;;;;;5005852;27;99114;-73
2022/01/22 03:32:19;;;;;;;52.10;46.78;;;16.30;55.20;;;;;;4999565;27;95348;-76
2022/01/22 03:35:08;;;;;;;52.67;47.33;;;16.20;55.10;;;;;;4987778;27;98199;-74
2022/01/22 03:37:34;;;;;;;52.97;47.65;;;16.20;55.30;;;;;;4995932;27;95913;-73
2022/01/22 03:40:00;;;;;;;53.05;47.60;;;16.10;55.40;;;;;;5006906;27;94450;-73
2022/01/22 03:42:25;;;;;;;53.45;47.97;;;16.10;55.40;;;;;;4998239;27;95097;-73
2022/01/22 03:45:11;;;;;;;52.35;47.08;;;16.10;55.40;;;;;;2949042;27;10096022;-73
2022/01/22 03:47:37;;;;;;;52.88;47.45;;;16.10;55.40;;;;;;2916719;27;10097173;-74
2022/01/22 03:50:05;;;;;;;52.58;47.28;;;16.00;55.40;;;;;;5001054;27;102664;-73
2022/01/22 03:52:30;;;;;;;52.45;47.17;;;16.00;55.50;;;;;;4997140;27;97890;-73
2022/01/22 03:54:56;;;;;;;52.28;47.00;;;16.00;55.50;;;;;;5000970;27;95423;-74
2022/01/22 03:57:23;;;;;;;52.80;47.42;;;16.00;55.50;;;;;;4995090;27;95664;-74
2022/01/22 03:59:50;;;;;;;52.45;47.05;;;16.00;55.60;;;;;;4992927;27;95597;-74
2022/01/22 04:05:03;;;;;;;52.72;47.38;;;15.90;55.70;;;;;;4997903;27;93996;-73
2022/01/22 04:10:09;;;;;;;52.53;47.15;;;15.90;55.80;;;;;;4999219;27;95012;-73
2022/01/22 04:12:51;;;;;;;53.53;48.05;;;15.90;55.80;;;;;;5005707;27;96143;-74
2022/01/22 04:15:21;;;;;;;52.97;47.55;;;15.90;56.00;;;;;;5012515;27;95573;-73
2022/01/22 04:25:55;;;;;;;52.90;47.55;;;16.20;55.30;;;;;;5004805;27;95652;-74
2022/01/22 04:28:20;;;;;;;53.60;48.10;;;16.30;55.10;;;;;;4998121;27;95833;-73
2022/01/22 04:30:46;;;;;;;53.03;47.63;;;16.40;55.00;;;;;;4981377;27;94737;-73
2022/01/22 04:33:12;;;;;;;52.90;47.50;;;16.50;54.80;;;;;;5011252;27;95543;-73
2022/01/22 04:35:37;;;;;;;53.40;47.92;;;16.50;54.60;;;;;;5013039;27;95926;-73
2022/01/22 04:38:03;;;;;;;53.38;47.92;;;16.60;54.30;;;;;;5012570;27;95737;-73
2022/01/22 04:40:29;;;;;;;53.40;47.90;;;16.70;54.20;;;;;;5009397;27;96278;-73
2022/01/22 04:42:55;;;;;;;53.25;47.75;;;16.70;54.00;;;;;;5004842;27;96951;-74
2022/01/22 04:45:42;;;;;;;53.42;48.03;;;16.70;53.90;;;;;;5016915;27;94757;-73
2022/01/22 04:55:44;;;;;;;53.13;47.63;;;16.90;53.60;;;;;;5019199;27;94247;-73
2022/01/22 04:58:10;;;;;;;53.38;47.97;;;16.80;53.50;;;;;;5003396;27;95107;-73
2022/01/22 05:00:38;;;;;;;53.30;47.78;;;16.80;53.50;;;;;;5011134;27;95628;-73
2022/01/22 05:03:05;;;;;;;53.92;48.42;;;16.80;53.70;;;;;;5006692;27;96976;-73
2022/01/22 05:05:31;;;;;;;53.85;48.35;;;16.90;53.50;;;;;;5013502;27;95455;-73
2022/01/22 05:07:57;;;;;;;53.92;48.42;;;16.80;53.50;;;;;;5019177;27;96197;-74
2022/01/22 05:10:24;;;;;;;53.65;48.17;;;16.80;53.60;;;;;;5008986;27;96574;-73
2022/01/22 05:12:50;;;;;;;53.08;47.67;;;16.80;54.20;;;;;;5009156;27;95001;-73
2022/01/22 05:15:17;;;;;;;53.42;47.97;;;16.80;53.60;;;;;;5014235;27;95194;-73
2022/01/22 05:17:45;;;;;;;53.30;47.83;;;16.80;53.70;;;;;;5015692;27;96947;-73
2022/01/22 05:20:21;;;;;;;53.72;48.13;;;16.80;53.70;;;;;;5012151;27;94434;-73
2022/01/22 05:25:23;;;;;;;52.95;47.63;;;16.80;53.80;;;;;;5014210;27;96126;-73
2022/01/22 05:38:21;;;;;;;52.97;47.53;;;17.50;53.00;;;;;;5013630;27;94706;-74
2022/01/22 05:40:46;;;;;;;53.25;47.75;;;17.60;52.90;;;;;;5016399;27;95590;-74
2022/01/22 05:43:12;;;;;;;53.50;48.00;;;17.70;52.70;;;;;;5015544;27;95335;-73
2022/01/22 05:45:38;;;;;;;53.10;47.55;;;17.80;52.30;;;;;;5013289;27;99483;-73
2022/01/22 05:48:04;;;;;;;52.45;47.05;;;17.80;52.40;;;;;;5015342;27;95261;-74
2022/01/22 05:50:34;;;;;;;53.00;47.50;;;17.90;52.20;;;;;;5016151;27;95434;-73
2022/01/22 05:53:06;;;;;;;53.42;47.75;;;17.90;52.10;;;;;;5003706;27;96667;-73
2022/01/22 06:00:44;;;;;;;53.08;47.58;;;18.00;52.10;;;;;;5008953;27;95233;-74
2022/01/22 06:03:10;;;;;;;53.22;47.78;;;18.00;51.90;;;;;;5013170;27;95040;-73
2022/01/22 06:05:36;;;;;;;53.03;47.55;;;18.00;51.80;;;;;;5012892;27;100453;-73
2022/01/22 06:08:02;;;;;;;53.55;48.05;;;18.00;51.80;;;;;;5016333;27;95476;-74
2022/01/22 06:10:29;;;;;;;53.30;47.75;;;17.90;51.90;;;;;;5011008;27;95933;-73
2022/01/22 06:15:36;;;;;;;53.78;48.20;;;18.00;51.90;;;;;;5015011;27;96095;-73
2022/01/22 06:18:01;;;;;;;53.47;47.88;;;17.90;52.20;;;;;;5008937;27;96179;-73
2022/01/22 06:20:27;;;;;;;53.70;48.10;;;17.90;52.10;;;;;;5008592;27;94797;-73
2022/01/22 06:22:52;;;;;;;54.28;48.58;;;17.80;52.20;;;;;;5005377;27;95384;-73
2022/01/22 06:25:18;;;;;;;54.28;48.67;;;17.80;52.10;;;;;;5010488;27;95122;-73
2022/01/22 06:27:44;;;;;;;53.08;47.63;;;17.80;51.80;;;;;;5012317;27;95395;-73
2022/01/22 06:30:10;;;;;;;53.42;47.92;;;17.80;52.10;;;;;;5002028;27;95819;-78
2022/01/22 06:32:36;;;;;;;53.85;48.10;;;17.80;52.20;;;;;;5014907;27;97242;-73
2022/01/22 06:35:01;;;;;;;54.25;48.58;;;17.70;52.40;;;;;;5015758;27;94374;-73
2022/01/22 06:37:27;;;;;;;53.95;48.25;;;17.70;52.10;;;;;;5006640;27;95314;-73
2022/01/22 06:41:44;;;;;;;53.28;47.83;;;17.70;52.10;;;;;;5011098;27;100972;-73
2022/01/22 06:42:47;;;;;;;53.90;48.30;;;17.70;52.40;;;;;;5010904;27;97596;-73
2022/01/22 06:45:13;;;;;;;54.25;48.65;;;17.60;52.30;;;;;;5013101;27;95950;-73
2022/01/22 06:47:39;;;;;;;53.72;48.22;;;17.60;52.30;;;;;;5015397;27;96235;-73
2022/01/22 06:50:18;;;;;;;53.15;47.70;;;17.60;52.60;;;;;;595831;27;10099846;-73
2022/01/22 06:52:44;;;;;;;54.30;48.70;;;17.50;52.50;;;;;;5009349;27;96582;-74
2022/01/22 06:55:12;;;;;;;54.25;48.53;;;17.50;52.70;;;;;;5006912;27;95264;-73
2022/01/22 06:57:37;;;;;;;54.15;48.53;;;17.40;52.80;;;;;;4999594;27;97314;-73
2022/01/22 07:00:04;;;;;;;53.80;48.35;;;17.40;53.00;;;;;;5006678;27;96314;-73
2022/01/22 07:02:30;;;;;;;53.75;48.17;;;17.40;53.10;;;;;;5011855;27;96522;-73
2022/01/22 07:04:56;;;;;;;53.95;48.25;;;17.40;53.70;;;;;;5014293;27;96164;-73
2022/01/22 07:07:21;;;;;;;54.13;48.58;;;17.30;53.10;;;;;;5012891;27;97046;-73
2022/01/22 07:09:47;;;;;;;54.50;48.80;;;17.30;53.30;;;;;;5016367;27;96717;-74
2022/01/22 07:12:13;;;;;;;53.88;48.33;;;17.30;53.10;;;;;;5014436;27;95178;-73
2022/01/22 07:14:41;;;;;;;54.08;48.28;;;17.30;53.20;;;;;;5011849;27;94778;-73
2022/01/22 07:17:07;;;;;;;54.20;48.40;;;17.30;53.20;;;;;;5012575;27;97431;-73
2022/01/22 07:19:39;;;;;;;53.63;47.92;;;17.30;53.30;;;;;;5002552;27;96600;-73
2022/01/22 07:22:19;;;;;;;;;;;17.30;53.30;;;;;;4992691;28;96182;-74
2022/01/22 07:24:44;;;;;;;53.33;47.88;;;17.40;53.20;;;;;;5010991;27;94104;-74
2022/01/22 07:27:10;;;;;;;53.63;48.13;;;17.40;53.20;;;;;;5009816;27;94782;-73
2022/01/22 07:29:35;;;;;;;53.60;48.08;;;17.40;53.20;;;;;;4998855;27;97913;-73
2022/01/22 07:32:05;;;;;;;55.30;49.42;;;17.40;53.00;;;;;;4988709;28;96743;-73
2022/01/22 07:34:31;;;;;;;54.70;49.00;;;17.40;53.00;;;;;;4991060;28;95119;-73
2022/01/22 07:36:58;;;;;;;53.58;47.97;;;17.50;52.80;;;;;;4994418;28;95335;-73
2022/01/22 07:39:24;;;;;;;53.92;48.33;;;17.50;52.80;;;;;;4993299;28;95290;-73
2022/01/22 07:41:51;;;;;;;53.58;48.03;;;17.50;52.80;;;;;;4998911;28;94815;-73
2022/01/22 07:44:16;;;;;;;54.47;48.78;;;17.50;52.70;;;;;;4979081;28;94630;-74
2022/01/22 07:46:42;;;;;;;53.50;47.97;;;17.60;52.80;;;;;;4991333;28;96314;-73
2022/01/22 07:49:08;;;;;;;53.97;48.35;;;17.50;52.70;;;;;;4995656;28;94961;-73
2022/01/22 07:51:33;;;;;;;54.10;48.50;;;17.50;52.70;;;;;;4994772;28;97974;-73
2022/01/22 07:54:00;;;;;;;54.25;48.65;;;17.50;52.70;;;;;;4994349;28;95808;-73
2022/01/22 07:56:26;;;;;;;54.70;49.00;;;17.50;52.90;;;;;;4988363;28;101288;-72
2022/01/22 07:58:52;;;;;;;53.88;48.38;;;17.50;52.70;;;;;;4977192;28;96190;-73
2022/01/22 08:01:17;;;;;;;53.90;48.33;;;17.50;52.70;;;;;;4990354;28;95928;-73
2022/01/22 08:03:43;;;;;;;55.00;49.22;;;17.40;52.90;;;;;;4987298;28;95360;-73
2022/01/22 08:06:08;;;;;;;53.70;48.15;;;17.40;52.70;;;;;;4984789;28;94718;-73
2022/01/22 08:08:34;;;;;;;54.20;48.45;;;17.40;52.80;;;;;;4993436;28;96541;-73
2022/01/22 08:11:00;;;;;;;54.67;48.92;;;17.40;52.70;;;;;;4997964;28;95364;-74
2022/01/22 08:13:26;;;;;;;53.58;48.08;;;17.40;52.90;;;;;;4998087;28;94937;-73
2022/01/22 08:15:52;;;;;;;54.78;48.88;;;17.40;53.00;;;;;;4991769;28;95880;-73
2022/01/22 08:18:17;;;;;;;54.08;48.42;;;17.40;52.90;;;;;;4988492;28;95642;-73
2022/01/22 08:20:43;;;;;;;53.92;48.40;;;17.40;52.90;;;;;;4992686;28;96023;-73
2022/01/22 08:23:08;;;;;;;54.47;48.78;;;17.50;52.80;;;;;;4991752;28;95417;-73
2022/01/22 08:25:35;;;;;;;54.55;48.95;;;17.60;52.60;;;;;;5000817;28;95419;-73
2022/01/22 08:30:31;;;;;;;54.28;48.38;;;17.70;52.40;;;;;;5004429;27;95863;-74
2022/01/22 08:38:07;;;;;;;54.35;48.65;;;17.80;52.10;;;;;;4997662;27;94278;-73
2022/01/22 08:40:33;;;;;;;54.40;48.67;;;17.90;52.10;;;;;;5012640;27;94929;-72
2022/01/22 08:42:58;;;;;;;53.85;48.30;;;17.80;52.00;;;;;;5020213;27;94829;-73
2022/01/22 08:45:24;;;;;;;54.13;48.42;;;17.90;52.10;;;;;;5026994;27;95924;-72
2022/01/22 08:47:50;;;;;;;54.42;48.65;;;17.90;52.00;;;;;;5023856;27;95907;-73
2022/01/22 08:50:15;;;;;;;54.22;48.60;;;17.90;51.90;;;;;;5020169;27;96445;-73
2022/01/22 08:52:41;;;;;;;54.17;48.47;;;17.90;51.80;;;;;;5019880;27;94739;-73
2022/01/22 08:55:08;;;;;;;54.63;48.92;;;17.80;51.80;;;;;;4992572;27;96519;-73
2022/01/22 08:57:33;;;;;;;54.20;48.40;;;17.80;51.90;;;;;;5008773;27;97919;-73
2022/01/22 09:00:00;;;;;;;54.47;48.78;;;17.80;52.00;;;;;;5010923;27;100875;-73
2022/01/22 09:02:25;;;;;;;53.58;48.08;;;17.80;52.00;;;;;;5013277;27;94318;-73
2022/01/22 09:04:53;;;;;;;53.72;48.13;;;17.80;52.20;;;;;;5008546;27;96340;-73
2022/01/22 09:07:18;;;;;;;54.17;48.60;;;17.70;52.10;;;;;;5002257;27;97394;-73
2022/01/22 09:09:44;;;;;;;54.20;48.53;;;17.70;52.30;;;;;;5008792;27;96282;-72
2022/01/22 09:12:10;;;;;;;54.65;48.95;;;17.70;52.20;;;;;;5009710;27;94871;-73
2022/01/22 09:14:37;;;;;;;54.63;48.90;;;17.70;52.10;;;;;;5012450;27;96884;-72
2022/01/22 09:17:03;;;;;;;54.47;48.83;;;17.60;52.20;;;;;;5012781;27;95654;-74
2022/01/22 09:19:34;;;;;;;53.65;48.05;;;17.60;52.40;;;;;;5007383;27;96007;-73
2022/01/22 09:22:02;;;;;;;54.40;48.70;;;17.60;52.30;;;;;;5013301;27;95461;-73
2022/01/22 09:24:28;;;;;;;53.83;48.33;;;17.60;52.50;;;;;;5011787;27;95211;-73
2022/01/22 09:26:57;;;;;;;54.40;48.72;;;17.60;52.40;;;;;;5011915;27;95573;-73
2022/01/22 09:29:23;;;;;;;54.60;48.83;;;17.60;52.50;;;;;;5004827;27;94806;-73
2022/01/22 09:31:49;;;;;;;54.00;48.30;;;17.60;52.40;;;;;;5007559;27;100065;-76
2022/01/22 09:34:15;;;;;;;53.58;48.08;;;17.60;52.30;;;;;;5015045;27;96279;-75
2022/01/22 09:36:41;;;;;;;54.17;48.47;;;17.70;52.40;;;;;;5013576;27;97718;-74
2022/01/22 09:39:07;;;;;;;54.60;48.95;;;17.70;52.50;;;;;;5012050;27;95448;-75
2022/01/22 09:41:33;;;;;;;53.95;48.35;;;17.70;52.30;;;;;;5008250;27;95848;-75
2022/01/22 09:43:59;;;;;;;55.13;49.20;;;17.80;52.20;;;;;;5014923;27;95193;-75
2022/01/22 09:46:28;;;;;;;54.28;48.53;;;17.90;52.10;;;;;;5012977;27;95906;-76
2022/01/22 09:48:55;;;;;;;54.38;48.70;;;18.00;51.90;;;;;;5013078;27;95452;-75
2022/01/22 09:51:21;;;;;;;53.70;48.15;;;18.00;52.40;;;;;;5014379;27;94727;-73
2022/01/22 09:53:47;;;;;;;53.92;48.35;;;18.10;51.60;;;;;;5009070;27;95224;-76
2022/01/22 09:56:19;;;;;;;53.30;47.63;;;18.10;51.70;;;;;;5009336;27;95431;-74
2022/01/22 09:58:45;;;;;;;53.50;47.75;;;18.10;51.90;;;;;;4997618;27;96447;-74
2022/01/22 10:01:26;;;;;;;53.55;47.85;;;18.20;51.80;;;;;;5011118;27;95056;-75
2022/01/22 10:03:55;;;;;;;52.63;47.13;;;18.20;51.70;;;;;;5012964;27;100497;-74
2022/01/22 10:06:24;;;;;;;52.67;47.20;;;18.10;51.80;;;;;;5012536;27;95250;-75
2022/01/22 10:08:55;;;;;;;53.45;47.75;;;18.10;51.90;;;;;;5013356;27;95604;-74
2022/01/22 10:11:27;;;;;;;53.00;47.50;;;18.10;52.00;;;;;;5006273;27;95767;-74
2022/01/22 10:13:58;;;;;;;53.00;47.35;;;18.00;52.10;;;;;;5004006;27;95197;-74
2022/01/22 10:16:38;;;;;;;52.72;47.25;;;18.00;52.20;;;;;;5006730;27;95673;-74
2022/01/22 10:19:24;;;;;;;52.22;46.83;;;18.00;52.30;;;;;;5007577;27;95501;-74
2022/01/22 10:21:57;;;;;;;52.75;47.20;;;18.00;52.30;;;;;;5014094;27;100709;-75
2022/01/22 10:24:45;;;;;;;52.47;46.92;;;17.90;52.40;;;;;;5002786;27;99527;-75
2022/01/22 10:27:25;;;;;;;52.53;47.03;;;17.90;52.50;;;;;;5008877;27;101521;-75
2022/01/22 10:30:00;;;;;;;52.55;46.95;;;17.80;52.60;;;;;;5003327;27;96624;-75
2022/01/22 10:35:18;;;;;;;53.17;47.47;;;17.80;52.80;;;;;;5008510;27;95213;-75
2022/01/22 10:37:44;;;;;;;52.40;46.95;;;17.70;52.70;;;;;;5005862;27;98961;-75
2022/01/22 10:40:17;;;;;;;52.63;47.15;;;17.70;52.80;;;;;;5007683;27;97022;-73
2022/01/22 10:42:43;;;;;;;53.05;47.45;;;17.70;52.90;;;;;;5009848;27;94342;-73
2022/01/22 10:45:12;;;;;;;52.60;47.20;;;17.70;53.00;;;;;;5009069;27;95185;-75
2022/01/22 10:47:38;;;;;;;52.53;47.13;;;17.70;53.00;;;;;;5005304;27;98110;-74
2022/01/22 10:50:24;;;;;;;52.88;47.17;;;17.70;52.90;;;;;;5014195;27;96584;-74
2022/01/22 10:52:55;;;;;;;52.65;47.05;;;17.70;52.90;;;;;;5014727;27;95112;-74
2022/01/22 10:55:21;;;;;;;52.53;47.00;;;17.70;52.90;;;;;;5012706;27;95234;-75
2022/01/22 10:58:16;;;;;;;52.42;47.00;;;17.80;52.90;;;;;;5006015;27;96364;-74
2022/01/22 11:00:42;;;;;;;52.05;46.58;;;17.90;52.70;;;;;;4990726;27;95511;-73
2022/01/22 11:03:23;;;;;;;52.35;46.95;;;17.90;52.70;;;;;;5004490;27;97037;-74
2022/01/22 11:05:48;;;;;;;53.20;47.60;;;18.00;52.70;;;;;;5008839;27;95055;-74
2022/01/22 11:08:14;;;;;;;52.63;47.15;;;18.00;52.70;;;;;;5006924;27;100734;-74
2022/01/22 11:10:54;;;;;;;52.20;46.70;;;18.00;52.50;;;;;;4016464;27;10091099;-73
2022/01/22 11:13:19;;;;;;;52.80;47.33;;;18.00;52.40;;;;;;1691495;27;10098267;-73
2022/01/22 11:15:48;;;;;;;53.00;47.42;;;18.00;52.40;;;;;;5000357;27;96285;-74
2022/01/22 11:18:17;;;;;;;52.40;46.95;;;18.10;52.40;;;;;;5004769;27;95914;-74
2022/01/22 11:20:43;;;;;;;52.65;47.13;;;18.00;52.40;;;;;;5010678;27;99684;-74
2022/01/22 11:23:09;;;;;;;53.13;47.63;;;18.00;52.40;;;;;;5008643;27;95139;-74
2022/01/22 11:25:35;;;;;;;52.53;47.05;;;18.10;52.50;;;;;;5013959;27;97434;-74
2022/01/22 11:28:02;;;;;;;53.58;47.88;;;18.00;52.60;;;;;;5012383;27;95910;-74
2022/01/22 11:30:29;;;;;;;53.28;47.67;;;18.00;52.60;;;;;;5010176;27;95427;-74
2022/01/22 11:33:02;;;;;;;52.92;47.28;;;18.00;52.60;;;;;;5016716;27;95613;-73
2022/01/22 11:35:55;;;;;;;53.30;47.70;;;18.00;52.60;;;;;;5016784;27;97115;-74
2022/01/22 11:38:48;;;;;;;53.47;47.78;;;17.90;52.50;;;;;;5016289;27;95257;-76
2022/01/22 11:41:19;;;;;;;53.33;47.40;;;17.90;52.60;;;;;;5011654;27;95701;-73
2022/01/22 11:44:10;;;;;;;53.08;47.38;;;17.90;52.80;;;;;;5013526;27;95097;-73
2022/01/22 11:46:40;;;;;;;52.90;47.38;;;17.80;52.70;;;;;;5010612;27;96021;-73
2022/01/22 11:49:26;;;;;;;53.03;47.45;;;17.80;52.90;;;;;;5013083;27;96643;-73
2022/01/22 11:52:10;;;;;;;52.88;47.38;;;17.70;53.00;;;;;;5013129;27;94869;-73
2022/01/22 11:54:49;;;;;;;53.20;47.72;;;17.70;53.10;;;;;;5018482;27;97332;-73
2022/01/22 11:57:16;;;;;;;53.38;47.58;;;17.70;53.10;;;;;;4999071;27;95344;-73
2022/01/22 11:59:43;;;;;;;53.45;47.65;;;17.60;53.20;;;;;;5005760;27;96075;-73
2022/01/22 12:02:14;;;;;;;53.85;48.05;;;17.60;53.30;;;;;;5012816;27;97496;-73
2022/01/22 12:04:40;;;;;;;53.13;47.60;;;17.60;53.40;;;;;;5013346;27;95800;-73
2022/01/22 12:07:07;;;;;;;53.08;47.47;;;17.60;53.40;;;;;;5005622;27;97889;-73
2022/01/22 12:10:15;;;;;;;53.35;47.75;;;17.60;53.30;;;;;;5004902;27;101731;-73
2022/01/22 12:15:35;;;;;;;52.97;47.53;;;17.50;53.50;;;;;;5013651;27;95080;-73
2022/01/22 12:18:10;;;;;;;53.63;48.03;;;17.50;53.50;;;;;;5006186;27;95180;-73
2022/01/22 12:23:39;;;;;;;53.75;48.05;;;17.50;53.60;;;;;;5010766;27;96501;-73
2022/01/22 12:26:05;;;;;;;53.83;48.17;;;17.40;53.60;;;;;;5006081;27;95367;-73
2022/01/22 12:28:40;;;;;;;53.90;48.30;;;17.40;53.70;;;;;;5009611;27;95900;-73
2022/01/22 12:31:18;;;;;;;53.45;47.92;;;17.40;53.70;;;;;;5012480;27;97383;-73
2022/01/22 12:33:47;;;;;;;53.80;48.20;;;17.30;53.70;;;;;;5006466;27;97442;-73
2022/01/22 12:36:23;;;;;;;54.03;48.42;;;17.40;53.80;;;;;;5021185;27;95316;-73
2022/01/22 12:39:06;;;;;;;53.65;48.05;;;17.30;53.70;;;;;;5016108;27;96478;-73
2022/01/22 12:41:51;;;;;;;53.90;48.20;;;17.40;54.40;;;;;;5016572;27;96305;-73
2022/01/22 12:44:33;;;;;;;53.83;48.10;;;17.30;53.70;;;;;;5000659;27;95703;-73
2022/01/22 12:47:05;;;;;;;54.55;48.15;;;17.30;53.80;;;;;;4994898;27;99350;-72
2022/01/22 12:49:33;;;;;;;54.20;48.42;;;17.20;53.90;;;;;;4993028;27;96142;-72
2022/01/22 12:52:05;;;;;;;54.85;48.95;;;17.30;54.10;;;;;;5008840;27;96416;-74
2022/01/22 12:54:45;;;;;;;54.45;48.75;;;17.50;53.70;;;;;;5001124;27;95801;-74
2022/01/22 12:57:13;;;;;;;53.72;48.13;;;17.80;53.20;;;;;;5007448;27;100536;-73
2022/01/22 13:02:50;;;;;;;54.47;48.78;;;18.20;52.20;;;;;;4994796;27;96179;-74
2022/01/22 13:05:19;;;;;;;54.65;48.85;;;18.40;51.80;;;;;;5010204;27;99560;-75
2022/01/22 13:07:55;;;;;;;54.92;48.97;;;18.70;51.30;;;;;;5006113;27;97311;-76
2022/01/22 13:10:32;;;;;;;54.97;48.97;;;18.80;51.20;;;;;;5012101;27;96616;-75
2022/01/22 13:12:59;;;;;;;54.90;49.03;;;18.90;50.80;;;;;;5005354;27;100410;-75
2022/01/22 13:15:27;;;;;;;55.00;49.10;;;19.10;50.40;;;;;;5010190;27;96577;-73
2022/01/22 13:18:00;;;;;;;55.83;49.53;;;19.20;50.20;;;;;;5013939;27;93964;-75
2022/01/22 13:20:28;;;;;;;55.47;49.58;;;19.30;49.90;;;;;;5004113;27;95429;-76
2022/01/22 13:22:56;;;;;;;55.13;49.30;;;19.40;49.80;;;;;;4994934;27;102830;-75
2022/01/22 13:25:22;;;;;;;55.30;49.38;;;19.40;49.60;;;;;;5001311;27;96506;-76
2022/01/22 13:28:04;;;;;;;54.85;49.13;;;19.50;49.50;;;;;;5001329;27;95322;-76
2022/01/22 13:30:35;;;;;;;55.10;49.30;;;19.50;49.40;;;;;;4996773;27;99048;-75
2022/01/22 13:33:13;;;;;;;;;;;19.60;49.40;;;;;;4992638;27;97413;-76
2022/01/22 13:35:58;;;;;;;55.55;49.58;;;19.70;49.20;;;;;;4992293;27;95718;-75
2022/01/22 13:49:19;;;;;;;57.13;51.10;;;19.80;48.40;;;;;;5005844;27;95224;-75
2022/01/22 13:51:45;;;;;;;57.22;51.00;;;19.80;48.40;;;;;;4998230;27;97395;-77
2022/01/22 13:54:13;;;;;;;55.80;49.88;;;19.80;48.40;;;;;;4997315;27;94831;-77
2022/01/22 13:56:52;;;;;;;58.55;52.22;;;19.80;48.50;;;;;;4995714;27;95824;-77
2022/01/22 13:59:22;;;;;;;55.97;49.97;;;19.70;48.60;;;;;;4997387;27;95219;-77
2022/01/22 14:04:41;;;;;;;57.17;50.95;;;19.70;48.80;;;;;;4964794;27;95914;-77
2022/01/22 14:07:23;;;;;;;56.95;50.60;;;19.60;48.90;;;;;;5003194;27;95141;-77
2022/01/22 14:10:15;;;;;;;57.25;51.13;;;19.60;49.20;;;;;;4996088;27;99338;-77
2022/01/22 14:12:43;;;;;;;57.63;51.42;;;19.60;49.40;;;;;;4976367;27;97949;-76
2022/01/22 14:15:11;;;;;;;56.83;50.63;;;19.50;49.60;;;;;;4988087;27;101434;-81
2022/01/22 14:18:35;;;;;;;56.65;50.30;;;19.50;49.70;;;;;;4996320;27;96849;-75
2022/01/22 14:21:06;;;;;;;57.08;50.60;;;19.40;49.80;;;;;;4997703;27;95782;-77
2022/01/22 14:23:34;;;;;;;59.40;51.22;;;19.30;50.90;;;;;;5006685;27;95642;-77
2022/01/22 14:26:02;;;;;;;56.50;50.50;;;19.20;50.80;;;;;;5010802;27;95110;-76
2022/01/22 14:28:46;;;;;;;58.15;51.95;;;19.10;50.90;;;;;;5009333;27;95455;-75
2022/01/22 14:31:28;;;;;;;58.50;50.92;;;19.10;51.20;;;;;;4990069;28;101498;-77
2022/01/22 14:34:02;;;;;;;60.05;51.50;;;18.90;51.40;;;;;;4994084;28;100917;-76
2022/01/22 14:36:47;;;;;;;58.30;51.63;;;18.90;51.70;;;;;;4995727;28;95034;-77
2022/01/22 14:44:45;;;;;;;60.28;51.63;;;18.80;52.10;;;;;;4999655;28;96159;-76
2022/01/22 14:47:18;;;;;;;60.72;51.28;;;18.70;52.30;;;;;;4997793;28;97185;-77
2022/01/22 14:49:55;;;;;;;56.65;50.45;;;18.70;52.50;;;;;;4991060;28;95352;-76
2022/01/22 14:52:23;;;;;;;57.53;51.22;;;18.60;52.60;;;;;;4987450;28;95611;-77